sensor_id;sensor_type;location;lat;lon;timestamp;P1;durP1;ratioP1;P2;durP2;ratioP2
4311;SDS011;2169;49.086;9.284;2022-08-30T00:02:36;3.90;;;2.20;;
4311;SDS011;2169;49.086;9.284;2022-08-30T00:05:05;2.53;;;2.33;;
4311;SDS011;2169;49.086;9.284;2022-08-30T00:07:32;2.43;;;2.23;;
4311;SDS011;2169;49.086;9.284;2022-08-30T00:09:59;3.43;;;2.40;;
4311;SDS011;2169;49.086;9.284;2022-08-30T00:12:25;5.13;;;3.10;;
4311;SDS011;2169;49.086;9.284;2022-08-30T00:14:52;4.60;;;2.43;;
4311;SDS011;2169;49.086;9.284;2022-08-30T00:17:20;2.60;;;2.40;;
4311;SDS011;2169;49.086;9.284;2022-08-30T00:19:47;3.83;;;2.10;;
4311;SDS011;2169;49.086;9.284;2022-08-30T00:22:15;2.47;;;2.10;;
4311;SDS011;2169;49.086;9.284;2022-08-30T00:24:42;4.47;;;2.57;;
4311;SDS011;2169;49.086;9.284;2022-08-30T00:27:08;6.53;;;2.90;;
4311;SDS011;2169;49.086;9.284;2022-08-30T00:29:35;2.50;;;2.30;;
4311;SDS011;2169;49.086;9.284;2022-08-30T00:32:02;3.00;;;2.80;;
4311;SDS011;2169;49.086;9.284;2022-08-30T00:34:30;2.57;;;2.37;;
4311;SDS011;2169;49.086;9.284;2022-08-30T00:36:56;2.00;;;1.90;;
4311;SDS011;2169;49.086;9.284;2022-08-30T00:39:25;4.20;;;2.40;;
4311;SDS011;2169;49.086;9.284;2022-08-30T00:41:52;4.47;;;2.40;;
4311;SDS011;2169;49.086;9.284;2022-08-30T00:44:19;3.93;;;3.13;;
4311;SDS011;2169;49.086;9.284;2022-08-30T00:46:46;3.83;;;2.80;;
4311;SDS011;2169;49.086;9.284;2022-08-30T00:49:12;5.03;;;1.93;;
4311;SDS011;2169;49.086;9.284;2022-08-30T00:51:39;5.13;;;2.80;;
4311;SDS011;2169;49.086;9.284;2022-08-30T00:54:07;3.57;;;2.80;;
4311;SDS011;2169;49.086;9.284;2022-08-30T00:56:36;2.83;;;2.60;;
4311;SDS011;2169;49.086;9.284;2022-08-30T00:59:03;4.97;;;2.43;;
4311;SDS011;2169;49.086;9.284;2022-08-30T01:01:32;10.33;;;3.00;;
4311;SDS011;2169;49.086;9.284;2022-08-30T01:04:01;3.67;;;3.17;;
4311;SDS011;2169;49.086;9.284;2022-08-30T01:06:30;3.80;;;3.20;;
4311;SDS011;2169;49.086;9.284;2022-08-30T01:08:58;3.53;;;2.30;;
4311;SDS011;2169;49.086;9.284;2022-08-30T01:11:26;2.80;;;2.33;;
4311;SDS011;2169;49.086;9.284;2022-08-30T01:13:55;7.20;;;2.50;;
4311;SDS011;2169;49.086;9.284;2022-08-30T01:16:22;2.87;;;2.57;;
4311;SDS011;2169;49.086;9.284;2022-08-30T01:18:50;3.37;;;2.37;;
4311;SDS011;2169;49.086;9.284;2022-08-30T01:21:22;8.43;;;2.77;;
4311;SDS011;2169;49.086;9.284;2022-08-30T01:23:55;9.90;;;3.00;;
4311;SDS011;2169;49.086;9.284;2022-08-30T01:26:24;6.30;;;2.57;;
4311;SDS011;2169;49.086;9.284;2022-08-30T01:28:54;3.83;;;1.80;;
4311;SDS011;2169;49.086;9.284;2022-08-30T01:31:24;5.13;;;2.50;;
4311;SDS011;2169;49.086;9.284;2022-08-30T01:33:51;2.63;;;1.83;;
4311;SDS011;2169;49.086;9.284;2022-08-30T01:36:18;11.33;;;3.00;;
4311;SDS011;2169;49.086;9.284;2022-08-30T01:38:46;8.07;;;3.10;;
4311;SDS011;2169;49.086;9.284;2022-08-30T01:41:17;2.67;;;2.47;;
4311;SDS011;2169;49.086;9.284;2022-08-30T01:43:46;3.80;;;2.40;;
4311;SDS011;2169;49.086;9.284;2022-08-30T01:46:14;3.53;;;2.50;;
4311;SDS011;2169;49.086;9.284;2022-08-30T01:48:42;2.93;;;2.77;;
4311;SDS011;2169;49.086;9.284;2022-08-30T01:51:10;4.50;;;2.90;;
4311;SDS011;2169;49.086;9.284;2022-08-30T01:53:38;9.23;;;2.73;;
4311;SDS011;2169;49.086;9.284;2022-08-30T01:56:05;6.63;;;2.87;;
4311;SDS011;2169;49.086;9.284;2022-08-30T01:58:35;3.17;;;2.57;;
4311;SDS011;2169;49.086;9.284;2022-08-30T02:01:03;3.97;;;2.60;;
4311;SDS011;2169;49.086;9.284;2022-08-30T02:03:31;7.63;;;2.40;;
4311;SDS011;2169;49.086;9.284;2022-08-30T02:06:01;3.83;;;2.17;;
4311;SDS011;2169;49.086;9.284;2022-08-30T02:08:29;5.73;;;3.27;;
4311;SDS011;2169;49.086;9.284;2022-08-30T02:10:56;4.63;;;3.60;;
4311;SDS011;2169;49.086;9.284;2022-08-30T02:13:23;5.20;;;3.13;;
4311;SDS011;2169;49.086;9.284;2022-08-30T02:15:51;5.03;;;3.00;;
4311;SDS011;2169;49.086;9.284;2022-08-30T02:18:18;3.40;;;3.10;;
4311;SDS011;2169;49.086;9.284;2022-08-30T02:20:45;3.43;;;3.13;;
4311;SDS011;2169;49.086;9.284;2022-08-30T02:23:12;23.57;;;3.20;;
4311;SDS011;2169;49.086;9.284;2022-08-30T02:25:39;8.10;;;2.40;;
4311;SDS011;2169;49.086;9.284;2022-08-30T02:28:06;3.40;;;2.80;;
4311;SDS011;2169;49.086;9.284;2022-08-30T02:30:33;7.13;;;2.97;;
4311;SDS011;2169;49.086;9.284;2022-08-30T02:33:02;3.80;;;2.60;;
4311;SDS011;2169;49.086;9.284;2022-08-30T02:35:29;6.03;;;2.67;;
4311;SDS011;2169;49.086;9.284;2022-08-30T02:37:56;3.57;;;3.37;;
4311;SDS011;2169;49.086;9.284;2022-08-30T02:40:23;16.97;;;4.10;;
4311;SDS011;2169;49.086;9.284;2022-08-30T02:42:50;3.37;;;3.17;;
4311;SDS011;2169;49.086;9.284;2022-08-30T02:45:16;3.47;;;3.20;;
4311;SDS011;2169;49.086;9.284;2022-08-30T02:47:43;3.20;;;3.00;;
4311;SDS011;2169;49.086;9.284;2022-08-30T02:50:11;3.33;;;3.13;;
4311;SDS011;2169;49.086;9.284;2022-08-30T02:52:39;5.23;;;2.80;;
4311;SDS011;2169;49.086;9.284;2022-08-30T02:55:20;2.70;;;2.50;;
4311;SDS011;2169;49.086;9.284;2022-08-30T02:57:47;2.90;;;2.47;;
4311;SDS011;2169;49.086;9.284;2022-08-30T03:00:15;3.40;;;2.63;;
4311;SDS011;2169;49.086;9.284;2022-08-30T03:02:43;6.73;;;3.33;;
4311;SDS011;2169;49.086;9.284;2022-08-30T03:05:12;8.00;;;2.73;;
4311;SDS011;2169;49.086;9.284;2022-08-30T03:07:40;6.77;;;2.83;;
4311;SDS011;2169;49.086;9.284;2022-08-30T03:10:08;3.80;;;2.40;;
4311;SDS011;2169;49.086;9.284;2022-08-30T03:12:35;4.10;;;3.13;;
4311;SDS011;2169;49.086;9.284;2022-08-30T03:15:02;7.97;;;4.13;;
4311;SDS011;2169;49.086;9.284;2022-08-30T03:17:30;3.80;;;3.33;;
4311;SDS011;2169;49.086;9.284;2022-08-30T03:19:57;3.67;;;3.37;;
4311;SDS011;2169;49.086;9.284;2022-08-30T03:22:26;4.37;;;2.60;;
4311;SDS011;2169;49.086;9.284;2022-08-30T03:24:53;6.30;;;2.80;;
4311;SDS011;2169;49.086;9.284;2022-08-30T03:27:23;3.93;;;2.90;;
4311;SDS011;2169;49.086;9.284;2022-08-30T03:29:50;5.27;;;2.67;;
4311;SDS011;2169;49.086;9.284;2022-08-30T03:32:17;3.63;;;3.30;;
4311;SDS011;2169;49.086;9.284;2022-08-30T03:34:44;2.83;;;2.50;;
4311;SDS011;2169;49.086;9.284;2022-08-30T03:37:11;9.20;;;3.10;;
4311;SDS011;2169;49.086;9.284;2022-08-30T03:39:40;4.67;;;4.10;;
4311;SDS011;2169;49.086;9.284;2022-08-30T03:42:07;3.47;;;3.23;;
4311;SDS011;2169;49.086;9.284;2022-08-30T03:44:35;5.70;;;2.43;;
4311;SDS011;2169;49.086;9.284;2022-08-30T03:47:02;4.20;;;3.53;;
4311;SDS011;2169;49.086;9.284;2022-08-30T03:49:29;2.90;;;2.70;;
4311;SDS011;2169;49.086;9.284;2022-08-30T03:51:57;3.57;;;2.20;;
4311;SDS011;2169;49.086;9.284;2022-08-30T03:54:24;9.30;;;4.03;;
4311;SDS011;2169;49.086;9.284;2022-08-30T03:56:52;6.60;;;3.90;;
4311;SDS011;2169;49.086;9.284;2022-08-30T03:59:19;4.80;;;3.37;;
4311;SDS011;2169;49.086;9.284;2022-08-30T04:01:45;3.77;;;3.23;;
4311;SDS011;2169;49.086;9.284;2022-08-30T04:04:12;5.67;;;2.87;;
4311;SDS011;2169;49.086;9.284;2022-08-30T04:06:39;5.83;;;4.97;;
4311;SDS011;2169;49.086;9.284;2022-08-30T04:09:06;4.07;;;2.57;;
4311;SDS011;2169;49.086;9.284;2022-08-30T04:11:33;4.23;;;3.17;;
4311;SDS011;2169;49.086;9.284;2022-08-30T04:14:01;3.10;;;2.30;;
4311;SDS011;2169;49.086;9.284;2022-08-30T04:16:29;6.43;;;3.87;;
4311;SDS011;2169;49.086;9.284;2022-08-30T04:18:55;11.27;;;4.70;;
4311;SDS011;2169;49.086;9.284;2022-08-30T04:21:22;4.60;;;3.23;;
4311;SDS011;2169;49.086;9.284;2022-08-30T04:23:49;6.57;;;4.73;;
4311;SDS011;2169;49.086;9.284;2022-08-30T04:26:16;3.13;;;2.63;;
4311;SDS011;2169;49.086;9.284;2022-08-30T04:28:42;7.23;;;3.10;;
4311;SDS011;2169;49.086;9.284;2022-08-30T04:31:11;4.20;;;3.30;;
4311;SDS011;2169;49.086;9.284;2022-08-30T04:33:39;5.13;;;2.40;;
4311;SDS011;2169;49.086;9.284;2022-08-30T04:36:07;6.33;;;3.23;;
4311;SDS011;2169;49.086;9.284;2022-08-30T04:38:35;3.30;;;3.00;;
4311;SDS011;2169;49.086;9.284;2022-08-30T04:41:07;3.80;;;3.00;;
4311;SDS011;2169;49.086;9.284;2022-08-30T04:43:36;7.70;;;2.90;;
4311;SDS011;2169;49.086;9.284;2022-08-30T04:46:04;7.47;;;4.10;;
4311;SDS011;2169;49.086;9.284;2022-08-30T04:48:33;7.63;;;3.90;;
4311;SDS011;2169;49.086;9.284;2022-08-30T04:51:01;3.87;;;3.60;;
4311;SDS011;2169;49.086;9.284;2022-08-30T04:53:29;5.90;;;3.67;;
4311;SDS011;2169;49.086;9.284;2022-08-30T04:55:56;4.00;;;3.70;;
4311;SDS011;2169;49.086;9.284;2022-08-30T04:58:23;4.00;;;3.30;;
4311;SDS011;2169;49.086;9.284;2022-08-30T05:00:50;3.53;;;3.17;;
4311;SDS011;2169;49.086;9.284;2022-08-30T05:03:17;4.30;;;3.90;;
4311;SDS011;2169;49.086;9.284;2022-08-30T05:05:47;5.63;;;3.10;;
4311;SDS011;2169;49.086;9.284;2022-08-30T05:08:15;3.87;;;2.63;;
4311;SDS011;2169;49.086;9.284;2022-08-30T05:10:44;4.10;;;3.33;;
4311;SDS011;2169;49.086;9.284;2022-08-30T05:13:13;3.83;;;3.50;;
4311;SDS011;2169;49.086;9.284;2022-08-30T05:15:40;11.87;;;3.90;;
4311;SDS011;2169;49.086;9.284;2022-08-30T05:18:08;5.17;;;3.80;;
4311;SDS011;2169;49.086;9.284;2022-08-30T05:20:36;10.80;;;3.37;;
4311;SDS011;2169;49.086;9.284;2022-08-30T05:23:05;13.27;;;4.10;;
4311;SDS011;2169;49.086;9.284;2022-08-30T05:25:33;4.53;;;3.83;;
4311;SDS011;2169;49.086;9.284;2022-08-30T05:28:03;5.13;;;3.80;;
4311;SDS011;2169;49.086;9.284;2022-08-30T05:30:31;7.67;;;4.47;;
4311;SDS011;2169;49.086;9.284;2022-08-30T05:32:59;4.83;;;3.80;;
4311;SDS011;2169;49.086;9.284;2022-08-30T05:35:27;13.00;;;4.77;;
4311;SDS011;2169;49.086;9.284;2022-08-30T05:37:54;12.07;;;5.03;;
4311;SDS011;2169;49.086;9.284;2022-08-30T05:40:23;3.43;;;3.13;;
4311;SDS011;2169;49.086;9.284;2022-08-30T05:42:49;4.90;;;3.63;;
4311;SDS011;2169;49.086;9.284;2022-08-30T05:45:16;5.80;;;4.30;;
4311;SDS011;2169;49.086;9.284;2022-08-30T05:47:43;7.43;;;4.50;;
4311;SDS011;2169;49.086;9.284;2022-08-30T05:50:11;6.13;;;5.00;;
4311;SDS011;2169;49.086;9.284;2022-08-30T05:52:39;13.90;;;4.70;;
4311;SDS011;2169;49.086;9.284;2022-08-30T05:55:08;6.87;;;3.97;;
4311;SDS011;2169;49.086;9.284;2022-08-30T05:57:37;6.20;;;4.83;;
4311;SDS011;2169;49.086;9.284;2022-08-30T06:00:06;5.00;;;4.57;;
4311;SDS011;2169;49.086;9.284;2022-08-30T06:02:35;4.93;;;3.80;;
4311;SDS011;2169;49.086;9.284;2022-08-30T06:05:02;5.13;;;4.53;;
4311;SDS011;2169;49.086;9.284;2022-08-30T06:07:30;7.40;;;4.83;;
4311;SDS011;2169;49.086;9.284;2022-08-30T06:09:57;3.77;;;3.57;;
4311;SDS011;2169;49.086;9.284;2022-08-30T06:12:24;4.70;;;4.23;;
4311;SDS011;2169;49.086;9.284;2022-08-30T06:14:52;5.23;;;4.60;;
4311;SDS011;2169;49.086;9.284;2022-08-30T06:17:19;5.67;;;4.10;;
4311;SDS011;2169;49.086;9.284;2022-08-30T06:19:46;6.07;;;4.27;;
4311;SDS011;2169;49.086;9.284;2022-08-30T06:22:13;4.73;;;4.07;;
4311;SDS011;2169;49.086;9.284;2022-08-30T06:24:40;15.87;;;4.93;;
4311;SDS011;2169;49.086;9.284;2022-08-30T06:27:08;4.40;;;4.00;;
4311;SDS011;2169;49.086;9.284;2022-08-30T06:29:35;7.60;;;4.77;;
4311;SDS011;2169;49.086;9.284;2022-08-30T06:32:03;6.30;;;4.40;;
4311;SDS011;2169;49.086;9.284;2022-08-30T06:34:30;11.07;;;4.67;;
4311;SDS011;2169;49.086;9.284;2022-08-30T06:36:57;7.53;;;4.77;;
4311;SDS011;2169;49.086;9.284;2022-08-30T06:39:23;4.93;;;4.37;;
4311;SDS011;2169;49.086;9.284;2022-08-30T06:41:50;10.73;;;4.57;;
4311;SDS011;2169;49.086;9.284;2022-08-30T06:44:17;3.87;;;3.57;;
4311;SDS011;2169;49.086;9.284;2022-08-30T06:46:44;3.53;;;3.33;;
4311;SDS011;2169;49.086;9.284;2022-08-30T06:49:13;6.63;;;3.20;;
4311;SDS011;2169;49.086;9.284;2022-08-30T06:51:40;8.47;;;4.60;;
4311;SDS011;2169;49.086;9.284;2022-08-30T06:54:07;3.80;;;3.50;;
4311;SDS011;2169;49.086;9.284;2022-08-30T06:56:35;8.13;;;3.17;;
4311;SDS011;2169;49.086;9.284;2022-08-30T06:59:02;12.90;;;3.90;;
4311;SDS011;2169;49.086;9.284;2022-08-30T07:01:29;4.53;;;3.07;;
4311;SDS011;2169;49.086;9.284;2022-08-30T07:03:56;13.17;;;6.23;;
4311;SDS011;2169;49.086;9.284;2022-08-30T07:06:26;6.00;;;3.93;;
4311;SDS011;2169;49.086;9.284;2022-08-30T07:08:54;2.90;;;2.70;;
4311;SDS011;2169;49.086;9.284;2022-08-30T07:11:25;7.10;;;2.93;;
4311;SDS011;2169;49.086;9.284;2022-08-30T07:13:54;5.60;;;2.67;;
4311;SDS011;2169;49.086;9.284;2022-08-30T07:16:21;2.97;;;2.77;;
4311;SDS011;2169;49.086;9.284;2022-08-30T07:18:48;3.63;;;2.60;;
4311;SDS011;2169;49.086;9.284;2022-08-30T07:21:15;21.23;;;3.13;;
4311;SDS011;2169;49.086;9.284;2022-08-30T07:23:44;4.53;;;2.23;;
4311;SDS011;2169;49.086;9.284;2022-08-30T07:26:14;4.13;;;3.00;;
4311;SDS011;2169;49.086;9.284;2022-08-30T07:28:43;3.93;;;2.47;;
4311;SDS011;2169;49.086;9.284;2022-08-30T07:31:11;4.60;;;3.27;;
4311;SDS011;2169;49.086;9.284;2022-08-30T07:33:40;3.73;;;2.40;;
4311;SDS011;2169;49.086;9.284;2022-08-30T07:36:07;5.90;;;3.03;;
4311;SDS011;2169;49.086;9.284;2022-08-30T07:38:34;7.17;;;2.80;;
4311;SDS011;2169;49.086;9.284;2022-08-30T07:41:03;4.27;;;2.23;;
4311;SDS011;2169;49.086;9.284;2022-08-30T07:43:30;3.07;;;2.87;;
4311;SDS011;2169;49.086;9.284;2022-08-30T07:45:59;4.03;;;2.70;;
4311;SDS011;2169;49.086;9.284;2022-08-30T07:48:27;4.90;;;2.57;;
4311;SDS011;2169;49.086;9.284;2022-08-30T07:50:54;6.57;;;2.33;;
4311;SDS011;2169;49.086;9.284;2022-08-30T07:53:21;2.93;;;2.30;;
4311;SDS011;2169;49.086;9.284;2022-08-30T07:55:47;2.30;;;1.63;;
4311;SDS011;2169;49.086;9.284;2022-08-30T07:58:16;3.70;;;2.60;;
4311;SDS011;2169;49.086;9.284;2022-08-30T08:00:43;12.53;;;4.67;;
4311;SDS011;2169;49.086;9.284;2022-08-30T08:03:09;1.77;;;1.67;;
4311;SDS011;2169;49.086;9.284;2022-08-30T08:05:37;4.40;;;2.77;;
4311;SDS011;2169;49.086;9.284;2022-08-30T08:08:04;2.37;;;1.83;;
4311;SDS011;2169;49.086;9.284;2022-08-30T08:10:32;1.77;;;1.50;;
4311;SDS011;2169;49.086;9.284;2022-08-30T08:13:00;3.80;;;2.07;;
4311;SDS011;2169;49.086;9.284;2022-08-30T08:15:28;3.30;;;3.10;;
4311;SDS011;2169;49.086;9.284;2022-08-30T08:17:55;5.53;;;2.10;;
4311;SDS011;2169;49.086;9.284;2022-08-30T08:20:22;5.80;;;2.10;;
4311;SDS011;2169;49.086;9.284;2022-08-30T08:22:50;22.90;;;2.60;;
4311;SDS011;2169;49.086;9.284;2022-08-30T08:25:17;3.30;;;2.53;;
4311;SDS011;2169;49.086;9.284;2022-08-30T08:27:45;5.47;;;4.53;;
4311;SDS011;2169;49.086;9.284;2022-08-30T08:30:12;4.50;;;2.13;;
4311;SDS011;2169;49.086;9.284;2022-08-30T08:32:40;2.40;;;1.77;;
4311;SDS011;2169;49.086;9.284;2022-08-30T08:35:07;2.87;;;1.77;;
4311;SDS011;2169;49.086;9.284;2022-08-30T08:37:35;3.63;;;2.77;;
4311;SDS011;2169;49.086;9.284;2022-08-30T08:40:02;5.30;;;2.87;;
4311;SDS011;2169;49.086;9.284;2022-08-30T08:42:40;6.80;;;2.30;;
4311;SDS011;2169;49.086;9.284;2022-08-30T08:45:33;4.17;;;2.40;;
4311;SDS011;2169;49.086;9.284;2022-08-30T08:48:09;3.77;;;2.17;;
4311;SDS011;2169;49.086;9.284;2022-08-30T08:50:51;2.33;;;2.10;;
4311;SDS011;2169;49.086;9.284;2022-08-30T08:53:36;4.90;;;2.03;;
4311;SDS011;2169;49.086;9.284;2022-08-30T08:56:04;4.83;;;2.83;;
4311;SDS011;2169;49.086;9.284;2022-08-30T08:58:45;2.37;;;2.20;;
4311;SDS011;2169;49.086;9.284;2022-08-30T09:01:14;4.13;;;2.23;;
4311;SDS011;2169;49.086;9.284;2022-08-30T09:03:43;2.40;;;1.30;;
4311;SDS011;2169;49.086;9.284;2022-08-30T09:06:22;2.17;;;1.97;;
4311;SDS011;2169;49.086;9.284;2022-08-30T09:08:58;4.57;;;2.27;;
4311;SDS011;2169;49.086;9.284;2022-08-30T09:11:26;3.53;;;1.57;;
4311;SDS011;2169;49.086;9.284;2022-08-30T09:13:56;1.87;;;1.77;;
4311;SDS011;2169;49.086;9.284;2022-08-30T09:19:37;2.17;;;1.47;;
4311;SDS011;2169;49.086;9.284;2022-08-30T09:22:19;5.70;;;1.83;;
4311;SDS011;2169;49.086;9.284;2022-08-30T09:24:51;3.70;;;1.73;;
4311;SDS011;2169;49.086;9.284;2022-08-30T09:27:22;2.90;;;2.70;;
4311;SDS011;2169;49.086;9.284;2022-08-30T09:30:03;2.30;;;1.77;;
4311;SDS011;2169;49.086;9.284;2022-08-30T09:32:34;2.13;;;1.77;;
4311;SDS011;2169;49.086;9.284;2022-08-30T09:35:05;1.60;;;1.50;;
4311;SDS011;2169;49.086;9.284;2022-08-30T09:37:37;4.10;;;2.60;;
4311;SDS011;2169;49.086;9.284;2022-08-30T09:40:09;4.10;;;2.07;;
4311;SDS011;2169;49.086;9.284;2022-08-30T09:42:39;5.63;;;2.60;;
4311;SDS011;2169;49.086;9.284;2022-08-30T09:45:10;2.17;;;2.00;;
4311;SDS011;2169;49.086;9.284;2022-08-30T09:47:45;3.60;;;2.37;;
4311;SDS011;2169;49.086;9.284;2022-08-30T09:50:14;4.13;;;2.00;;
4311;SDS011;2169;49.086;9.284;2022-08-30T09:52:51;2.47;;;2.27;;
4311;SDS011;2169;49.086;9.284;2022-08-30T09:55:34;2.20;;;2.10;;
4311;SDS011;2169;49.086;9.284;2022-08-30T09:58:14;3.00;;;2.07;;
4311;SDS011;2169;49.086;9.284;2022-08-30T10:00:50;4.50;;;2.43;;
4311;SDS011;2169;49.086;9.284;2022-08-30T10:03:23;3.23;;;1.80;;
4311;SDS011;2169;49.086;9.284;2022-08-30T10:06:00;5.40;;;2.67;;
4311;SDS011;2169;49.086;9.284;2022-08-30T10:08:37;5.03;;;2.80;;
4311;SDS011;2169;49.086;9.284;2022-08-30T10:11:15;2.20;;;2.00;;
4311;SDS011;2169;49.086;9.284;2022-08-30T10:13:51;5.00;;;2.90;;
4311;SDS011;2169;49.086;9.284;2022-08-30T10:16:32;2.93;;;2.83;;
4311;SDS011;2169;49.086;9.284;2022-08-30T10:19:11;3.07;;;2.70;;
4311;SDS011;2169;49.086;9.284;2022-08-30T10:21:47;6.27;;;2.17;;
4311;SDS011;2169;49.086;9.284;2022-08-30T10:24:20;3.37;;;2.50;;
4311;SDS011;2169;49.086;9.284;2022-08-30T10:26:51;10.33;;;3.27;;
4311;SDS011;2169;49.086;9.284;2022-08-30T10:29:21;2.40;;;2.17;;
4311;SDS011;2169;49.086;9.284;2022-08-30T10:31:55;3.77;;;3.20;;
4311;SDS011;2169;49.086;9.284;2022-08-30T10:34:28;6.33;;;2.43;;
4311;SDS011;2169;49.086;9.284;2022-08-30T10:37:02;2.27;;;2.17;;
4311;SDS011;2169;49.086;9.284;2022-08-30T10:39:33;7.23;;;2.50;;
4311;SDS011;2169;49.086;9.284;2022-08-30T10:42:06;3.73;;;2.80;;
4311;SDS011;2169;49.086;9.284;2022-08-30T10:44:38;8.53;;;2.50;;
4311;SDS011;2169;49.086;9.284;2022-08-30T10:47:11;3.50;;;3.13;;
4311;SDS011;2169;49.086;9.284;2022-08-30T10:49:47;4.70;;;2.90;;
4311;SDS011;2169;49.086;9.284;2022-08-30T10:52:21;5.20;;;2.83;;
4311;SDS011;2169;49.086;9.284;2022-08-30T10:54:56;8.20;;;2.43;;
4311;SDS011;2169;49.086;9.284;2022-08-30T10:57:26;4.00;;;2.20;;
4311;SDS011;2169;49.086;9.284;2022-08-30T10:59:53;2.53;;;1.83;;
4311;SDS011;2169;49.086;9.284;2022-08-30T11:02:33;2.70;;;2.50;;
4311;SDS011;2169;49.086;9.284;2022-08-30T11:05:14;3.40;;;2.87;;
4311;SDS011;2169;49.086;9.284;2022-08-30T11:08:06;2.70;;;1.90;;
4311;SDS011;2169;49.086;9.284;2022-08-30T11:10:48;2.20;;;2.00;;
4311;SDS011;2169;49.086;9.284;2022-08-30T11:13:22;2.07;;;1.87;;
4311;SDS011;2169;49.086;9.284;2022-08-30T11:15:52;3.50;;;3.20;;
4311;SDS011;2169;49.086;9.284;2022-08-30T11:18:23;3.63;;;2.00;;
4311;SDS011;2169;49.086;9.284;2022-08-30T11:20:53;6.73;;;2.40;;
4311;SDS011;2169;49.086;9.284;2022-08-30T11:23:41;2.67;;;2.47;;
4311;SDS011;2169;49.086;9.284;2022-08-30T11:29:29;2.67;;;2.57;;
4311;SDS011;2169;49.086;9.284;2022-08-30T11:31:59;2.10;;;1.93;;
4311;SDS011;2169;49.086;9.284;2022-08-30T11:34:52;3.47;;;2.50;;
4311;SDS011;2169;49.086;9.284;2022-08-30T11:37:35;3.80;;;2.33;;
4311;SDS011;2169;49.086;9.284;2022-08-30T11:40:10;5.83;;;2.93;;
4311;SDS011;2169;49.086;9.284;2022-08-30T11:42:53;2.63;;;2.40;;
4311;SDS011;2169;49.086;9.284;2022-08-30T11:51:09;6.40;;;2.53;;
4311;SDS011;2169;49.086;9.284;2022-08-30T11:53:46;3.90;;;3.50;;
4311;SDS011;2169;49.086;9.284;2022-08-30T11:56:21;3.20;;;2.13;;
4311;SDS011;2169;49.086;9.284;2022-08-30T11:58:53;3.30;;;2.33;;
4311;SDS011;2169;49.086;9.284;2022-08-30T12:01:31;2.90;;;2.70;;
4311;SDS011;2169;49.086;9.284;2022-08-30T12:04:02;5.03;;;2.20;;
4311;SDS011;2169;49.086;9.284;2022-08-30T12:06:48;7.13;;;2.73;;
4311;SDS011;2169;49.086;9.284;2022-08-30T12:12:49;2.17;;;1.57;;
4311;SDS011;2169;49.086;9.284;2022-08-30T12:18:29;4.40;;;2.97;;
4311;SDS011;2169;49.086;9.284;2022-08-30T12:21:07;3.40;;;2.63;;
4311;SDS011;2169;49.086;9.284;2022-08-30T12:23:41;6.73;;;3.10;;
4311;SDS011;2169;49.086;9.284;2022-08-30T12:26:16;3.27;;;2.73;;
4311;SDS011;2169;49.086;9.284;2022-08-30T12:28:50;2.23;;;2.03;;
4311;SDS011;2169;49.086;9.284;2022-08-30T12:31:19;4.63;;;4.10;;
4311;SDS011;2169;49.086;9.284;2022-08-30T12:33:48;4.53;;;2.57;;
4311;SDS011;2169;49.086;9.284;2022-08-30T12:36:30;7.00;;;2.20;;
4311;SDS011;2169;49.086;9.284;2022-08-30T12:39:04;1.83;;;1.73;;
4311;SDS011;2169;49.086;9.284;2022-08-30T12:41:35;2.40;;;2.30;;
4311;SDS011;2169;49.086;9.284;2022-08-30T12:44:04;4.60;;;1.70;;
4311;SDS011;2169;49.086;9.284;2022-08-30T12:46:34;2.43;;;2.20;;
4311;SDS011;2169;49.086;9.284;2022-08-30T12:49:02;2.03;;;1.83;;
4311;SDS011;2169;49.086;9.284;2022-08-30T12:51:33;4.47;;;2.57;;
4311;SDS011;2169;49.086;9.284;2022-08-30T12:54:03;4.97;;;3.63;;
4311;SDS011;2169;49.086;9.284;2022-08-30T12:59:44;5.87;;;2.80;;
4311;SDS011;2169;49.086;9.284;2022-08-30T13:02:17;3.37;;;2.03;;
4311;SDS011;2169;49.086;9.284;2022-08-30T13:04:45;4.23;;;3.00;;
4311;SDS011;2169;49.086;9.284;2022-08-30T13:07:23;4.60;;;3.00;;
4311;SDS011;2169;49.086;9.284;2022-08-30T13:09:57;4.17;;;2.70;;
4311;SDS011;2169;49.086;9.284;2022-08-30T13:12:33;4.13;;;2.13;;
4311;SDS011;2169;49.086;9.284;2022-08-30T13:15:11;12.27;;;2.53;;
4311;SDS011;2169;49.086;9.284;2022-08-30T13:17:42;4.50;;;2.20;;
4311;SDS011;2169;49.086;9.284;2022-08-30T13:20:19;4.73;;;2.60;;
4311;SDS011;2169;49.086;9.284;2022-08-30T13:23:03;6.20;;;2.27;;
4311;SDS011;2169;49.086;9.284;2022-08-30T13:25:32;3.47;;;1.50;;
4311;SDS011;2169;49.086;9.284;2022-08-30T13:28:00;2.73;;;2.53;;
4311;SDS011;2169;49.086;9.284;2022-08-30T13:30:29;1.70;;;1.60;;
4311;SDS011;2169;49.086;9.284;2022-08-30T13:32:57;2.60;;;2.33;;
4311;SDS011;2169;49.086;9.284;2022-08-30T13:35:25;3.00;;;1.90;;
4311;SDS011;2169;49.086;9.284;2022-08-30T13:37:52;6.50;;;2.27;;
4311;SDS011;2169;49.086;9.284;2022-08-30T13:40:20;2.53;;;2.37;;
4311;SDS011;2169;49.086;9.284;2022-08-30T13:42:47;7.50;;;2.93;;
4311;SDS011;2169;49.086;9.284;2022-08-30T13:45:15;4.87;;;1.70;;
4311;SDS011;2169;49.086;9.284;2022-08-30T13:47:44;4.43;;;2.30;;
4311;SDS011;2169;49.086;9.284;2022-08-30T13:50:13;4.20;;;2.47;;
4311;SDS011;2169;49.086;9.284;2022-08-30T13:52:40;2.10;;;2.00;;
4311;SDS011;2169;49.086;9.284;2022-08-30T13:55:07;2.10;;;2.00;;
4311;SDS011;2169;49.086;9.284;2022-08-30T13:57:36;2.73;;;2.53;;
4311;SDS011;2169;49.086;9.284;2022-08-30T14:00:05;2.60;;;2.40;;
4311;SDS011;2169;49.086;9.284;2022-08-30T14:02:34;8.60;;;1.50;;
4311;SDS011;2169;49.086;9.284;2022-08-30T14:05:03;3.70;;;2.20;;
4311;SDS011;2169;49.086;9.284;2022-08-30T14:07:31;2.30;;;2.13;;
4311;SDS011;2169;49.086;9.284;2022-08-30T14:09:58;2.57;;;2.37;;
4311;SDS011;2169;49.086;9.284;2022-08-30T14:12:26;3.03;;;2.83;;
4311;SDS011;2169;49.086;9.284;2022-08-30T14:14:53;2.00;;;1.90;;
4311;SDS011;2169;49.086;9.284;2022-08-30T14:17:20;3.50;;;3.20;;
4311;SDS011;2169;49.086;9.284;2022-08-30T14:19:53;3.13;;;2.60;;
4311;SDS011;2169;49.086;9.284;2022-08-30T14:22:21;1.53;;;1.43;;
4311;SDS011;2169;49.086;9.284;2022-08-30T14:24:48;2.30;;;2.20;;
4311;SDS011;2169;49.086;9.284;2022-08-30T14:27:15;2.17;;;1.97;;
4311;SDS011;2169;49.086;9.284;2022-08-30T14:29:41;1.73;;;1.63;;
4311;SDS011;2169;49.086;9.284;2022-08-30T14:32:08;3.37;;;3.03;;
4311;SDS011;2169;49.086;9.284;2022-08-30T14:34:35;1.97;;;1.63;;
4311;SDS011;2169;49.086;9.284;2022-08-30T14:37:02;2.80;;;2.40;;
4311;SDS011;2169;49.086;9.284;2022-08-30T14:39:32;2.20;;;1.90;;
4311;SDS011;2169;49.086;9.284;2022-08-30T14:41:59;7.03;;;2.23;;
4311;SDS011;2169;49.086;9.284;2022-08-30T14:44:26;1.67;;;1.40;;
4311;SDS011;2169;49.086;9.284;2022-08-30T14:46:53;3.47;;;1.53;;
4311;SDS011;2169;49.086;9.284;2022-08-30T14:49:20;5.53;;;1.77;;
4311;SDS011;2169;49.086;9.284;2022-08-30T14:51:48;3.97;;;1.97;;
4311;SDS011;2169;49.086;9.284;2022-08-30T14:54:15;2.27;;;2.10;;
4311;SDS011;2169;49.086;9.284;2022-08-30T14:56:45;2.33;;;2.13;;
4311;SDS011;2169;49.086;9.284;2022-08-30T14:59:12;2.10;;;1.97;;
4311;SDS011;2169;49.086;9.284;2022-08-30T15:01:40;3.63;;;1.83;;
4311;SDS011;2169;49.086;9.284;2022-08-30T15:04:07;1.67;;;1.57;;
4311;SDS011;2169;49.086;9.284;2022-08-30T15:06:35;3.40;;;2.23;;
4311;SDS011;2169;49.086;9.284;2022-08-30T15:09:03;1.67;;;1.57;;
4311;SDS011;2169;49.086;9.284;2022-08-30T15:11:32;2.50;;;2.20;;
4311;SDS011;2169;49.086;9.284;2022-08-30T15:14:00;1.90;;;1.80;;
4311;SDS011;2169;49.086;9.284;2022-08-30T15:16:28;2.77;;;2.00;;
4311;SDS011;2169;49.086;9.284;2022-08-30T15:18:57;2.93;;;1.80;;
4311;SDS011;2169;49.086;9.284;2022-08-30T15:21:25;7.83;;;1.80;;
4311;SDS011;2169;49.086;9.284;2022-08-30T15:23:55;2.33;;;2.20;;
4311;SDS011;2169;49.086;9.284;2022-08-30T15:26:23;2.43;;;2.23;;
4311;SDS011;2169;49.086;9.284;2022-08-30T15:28:50;6.43;;;1.77;;
4311;SDS011;2169;49.086;9.284;2022-08-30T15:31:19;2.17;;;1.60;;
4311;SDS011;2169;49.086;9.284;2022-08-30T15:33:48;1.93;;;1.83;;
4311;SDS011;2169;49.086;9.284;2022-08-30T15:36:15;2.00;;;1.90;;
4311;SDS011;2169;49.086;9.284;2022-08-30T15:38:42;2.40;;;2.17;;
4311;SDS011;2169;49.086;9.284;2022-08-30T15:41:09;4.57;;;1.80;;
4311;SDS011;2169;49.086;9.284;2022-08-30T15:43:37;4.23;;;2.30;;
4311;SDS011;2169;49.086;9.284;2022-08-30T15:46:16;4.90;;;1.53;;
4311;SDS011;2169;49.086;9.284;2022-08-30T15:48:47;2.10;;;1.90;;
4311;SDS011;2169;49.086;9.284;2022-08-30T15:51:16;1.50;;;1.40;;
4311;SDS011;2169;49.086;9.284;2022-08-30T15:53:43;2.10;;;1.60;;